createdAt,value
2019-03-01T00:00:29.296Z,56.77
2019-03-01T00:02:57.595Z,57.23
2019-03-01T00:05:33.523Z,52.67
2019-03-01T00:08:15.155Z,55.80
2019-03-01T00:10:51.107Z,54.60
2019-03-01T00:13:23.728Z,57.27
2019-03-01T00:15:53.802Z,55.20
2019-03-01T00:18:23.981Z,54.97
2019-03-01T00:20:56.775Z,55.40
2019-03-01T00:23:44.587Z,58.00
2019-03-01T00:26:14.465Z,55.80
2019-03-01T00:28:47.592Z,60.27
2019-03-01T00:31:17.440Z,56.33
2019-03-01T00:33:56.234Z,59.93
2019-03-01T00:36:38.682Z,57.43
2019-03-01T00:39:14.643Z,55.60
2019-03-01T00:42:01.232Z,54.60
2019-03-01T00:44:33.957Z,52.47
2019-03-01T00:47:02.389Z,53.80
2019-03-01T00:49:32.172Z,57.83
2019-03-01T00:52:00.327Z,52.17
2019-03-01T00:54:28.852Z,52.13
2019-03-01T00:56:57.302Z,59.27
2019-03-01T00:59:25.460Z,55.87
2019-03-01T01:01:53.613Z,57.93
2019-03-01T01:04:21.924Z,59.87
2019-03-01T01:06:50.086Z,58.80
2019-03-01T01:09:18.474Z,54.70
2019-03-01T01:11:46.847Z,59.53
2019-03-01T01:14:15.321Z,53.33
2019-03-01T01:16:43.480Z,59.60
2019-03-01T01:19:11.984Z,55.33
2019-03-01T01:21:40.195Z,56.33
2019-03-01T01:24:09.671Z,60.37
2019-03-01T01:26:38.374Z,60.93
2019-03-01T01:29:06.804Z,58.90
2019-03-01T01:31:35.302Z,58.87
2019-03-01T01:34:03.777Z,57.50
2019-03-01T01:36:32.186Z,68.23
2019-03-01T01:39:00.290Z,64.47
2019-03-01T01:41:28.488Z,61.00
2019-03-01T01:43:56.645Z,65.57
2019-03-01T01:46:24.804Z,67.30
2019-03-01T01:48:53.260Z,64.43
2019-03-01T01:51:21.416Z,57.53
2019-03-01T01:53:49.783Z,66.17
2019-03-01T01:56:17.972Z,58.50
2019-03-01T01:58:46.136Z,57.33
2019-03-01T02:01:14.293Z,56.90
2019-03-01T02:03:42.481Z,57.93
2019-03-01T02:06:10.640Z,58.17
2019-03-01T02:08:38.798Z,64.47
2019-03-01T02:11:06.989Z,62.40
2019-03-01T02:13:35.356Z,54.30
2019-03-01T02:16:03.578Z,61.83
2019-03-01T02:18:31.800Z,62.07
2019-03-01T02:20:59.965Z,54.93
2019-03-01T02:23:28.189Z,61.97
2019-03-01T02:25:56.513Z,59.60
2019-03-01T02:28:24.763Z,62.13
2019-03-01T02:30:54.536Z,57.33
2019-03-01T02:33:22.750Z,65.70
2019-03-01T02:35:50.907Z,63.77
2019-03-01T02:38:19.154Z,60.97
2019-03-01T02:40:47.376Z,66.87
2019-03-01T02:43:15.533Z,65.10
2019-03-01T02:45:43.702Z,59.03
2019-03-01T02:48:11.896Z,60.67
2019-03-01T02:50:40.053Z,62.20
2019-03-01T02:53:08.210Z,63.37
2019-03-01T02:55:36.413Z,65.03
2019-03-01T02:58:04.584Z,61.70
2019-03-01T03:00:32.788Z,59.43
2019-03-01T03:03:00.985Z,64.90
2019-03-01T03:05:29.237Z,56.37
2019-03-01T03:07:59.041Z,55.53
2019-03-01T03:10:27.298Z,51.37
2019-03-01T03:12:57.021Z,56.53
2019-03-01T03:15:29.901Z,58.13
2019-03-01T03:17:58.154Z,57.83
2019-03-01T03:20:26.260Z,58.97
2019-03-01T03:22:54.729Z,56.17
2019-03-01T03:25:22.929Z,57.70
2019-03-01T03:27:52.278Z,56.80
2019-03-01T03:30:20.843Z,57.33
2019-03-01T03:32:49.029Z,63.00
2019-03-01T03:35:17.444Z,55.47
2019-03-01T03:37:45.709Z,55.63
2019-03-01T03:40:14.585Z,73.13
2019-03-01T03:42:42.910Z,66.77
2019-03-01T03:45:13.051Z,52.87
2019-03-01T03:47:41.737Z,59.33
2019-03-01T03:50:10.974Z,61.47
2019-03-01T03:52:39.280Z,64.50
2019-03-01T03:55:09.398Z,61.73
2019-03-01T03:57:38.113Z,64.67
2019-03-01T04:00:07.901Z,68.10
2019-03-01T04:02:36.341Z,64.70
2019-03-01T04:05:06.314Z,57.17
2019-03-01T04:07:34.832Z,60.50
2019-03-01T04:10:03.248Z,67.63
2019-03-01T04:12:31.517Z,53.80
2019-03-01T04:14:59.910Z,67.00
2019-03-01T04:17:28.373Z,69.23
2019-03-01T04:19:56.869Z,70.03
2019-03-01T04:22:25.492Z,72.93
2019-03-01T04:24:54.052Z,73.90
2019-03-01T04:27:22.480Z,65.77
2019-03-01T04:29:51.761Z,66.17
2019-03-01T04:32:20.069Z,62.80
2019-03-01T04:34:48.225Z,65.93
2019-03-01T04:37:16.383Z,70.60
2019-03-01T04:39:44.644Z,67.93
2019-03-01T04:42:13.173Z,57.47
2019-03-01T04:44:41.331Z,62.57
2019-03-01T04:47:09.889Z,63.83
2019-03-01T04:49:38.514Z,60.90
2019-03-01T04:52:24.793Z,62.53
2019-03-01T04:54:53.221Z,67.33
2019-03-01T04:57:21.668Z,105.77
2019-03-01T04:59:50.049Z,66.53
2019-03-01T05:02:18.206Z,71.50
2019-03-01T05:04:46.439Z,60.53
2019-03-01T05:07:14.860Z,65.87
2019-03-01T05:09:43.093Z,67.17
2019-03-01T05:12:11.601Z,63.43
2019-03-01T05:14:39.799Z,63.87
2019-03-01T05:17:07.958Z,66.57
2019-03-01T05:19:36.248Z,58.03
2019-03-01T05:22:04.773Z,69.60
2019-03-01T05:24:33.103Z,62.00
2019-03-01T05:27:01.428Z,69.17
2019-03-01T05:29:29.553Z,63.83
2019-03-01T05:31:58.874Z,67.87
2019-03-01T05:37:26.617Z,63.83
2019-03-01T05:39:55.046Z,74.13
2019-03-01T05:42:23.573Z,71.60
2019-03-01T05:44:52.204Z,65.40
2019-03-01T05:47:20.653Z,61.47
2019-03-01T05:49:49.064Z,67.40
2019-03-01T05:52:17.275Z,61.57
2019-03-01T05:54:45.432Z,63.60
2019-03-01T05:57:13.593Z,59.60
2019-03-01T05:59:42.170Z,61.70
2019-03-01T06:02:12.085Z,65.20
2019-03-01T06:04:47.688Z,56.23
2019-03-01T06:07:23.276Z,64.47
2019-03-01T06:10:05.358Z,72.07
2019-03-01T06:12:38.222Z,74.03
2019-03-01T06:15:08.273Z,66.53
2019-03-01T06:17:54.531Z,64.20
2019-03-01T06:20:27.224Z,78.33
2019-03-01T06:22:57.221Z,73.20
2019-03-01T06:25:33.472Z,71.57
2019-03-01T06:28:19.090Z,75.97
2019-03-01T06:30:51.863Z,60.57
2019-03-01T06:33:27.428Z,73.50
2019-03-01T06:35:57.219Z,69.73
2019-03-01T06:38:49.862Z,68.17
2019-03-01T06:41:30.725Z,69.10
2019-03-01T06:44:03.936Z,66.00
2019-03-01T06:46:33.789Z,77.10
2019-03-01T06:49:03.656Z,76.03
2019-03-01T06:51:32.104Z,71.50
2019-03-01T06:54:00.535Z,73.07
2019-03-01T06:56:28.687Z,78.40
2019-03-01T06:58:57.507Z,68.40
2019-03-01T07:01:26.835Z,87.93
2019-03-01T07:03:55.508Z,80.40
2019-03-01T07:06:23.706Z,77.33
2019-03-01T07:08:52.140Z,79.77
2019-03-01T07:11:20.467Z,98.80
2019-03-01T07:13:48.665Z,84.33
2019-03-01T07:16:17.228Z,88.07
2019-03-01T07:18:45.458Z,80.93
2019-03-01T07:21:13.644Z,85.90
2019-03-01T07:23:42.078Z,95.60
2019-03-01T07:26:10.225Z,74.77
2019-03-01T07:28:38.723Z,75.43
2019-03-01T07:31:07.203Z,83.47
2019-03-01T07:33:35.549Z,74.33
2019-03-01T07:36:04.641Z,92.17
2019-03-01T07:38:32.807Z,78.10
2019-03-01T07:41:01.123Z,81.57
2019-03-01T07:43:29.788Z,74.43
2019-03-01T07:45:58.152Z,73.07
2019-03-01T07:48:26.353Z,80.23
2019-03-01T07:50:55.266Z,71.80
2019-03-01T07:53:24.284Z,65.20
2019-03-01T07:55:52.844Z,65.93
2019-03-01T07:58:21.525Z,66.57
2019-03-01T08:00:53.606Z,64.63
2019-03-01T08:03:20.919Z,72.37
2019-03-01T08:05:49.301Z,72.30
2019-03-01T08:08:17.461Z,71.63
2019-03-01T08:10:45.834Z,74.13
2019-03-01T08:13:14.734Z,74.17
2019-03-01T08:15:45.019Z,78.17
2019-03-01T08:18:17.263Z,68.23
2019-03-01T08:20:45.464Z,75.73
2019-03-01T08:23:14.487Z,79.80
2019-03-01T08:25:42.740Z,78.37
2019-03-01T08:28:11.563Z,83.27
2019-03-01T08:30:42.554Z,86.97
2019-03-01T08:33:10.154Z,74.83
2019-03-01T08:35:38.739Z,80.57
2019-03-01T08:38:07.967Z,79.97
2019-03-01T08:40:36.456Z,73.13
2019-03-01T08:43:04.693Z,83.53
2019-03-01T08:45:33.690Z,80.27
2019-03-01T08:48:02.015Z,84.17
2019-03-01T08:50:30.550Z,87.37
2019-03-01T08:52:58.831Z,88.50
2019-03-01T08:55:29.022Z,86.00
2019-03-01T08:57:59.665Z,85.10
2019-03-01T09:00:30.114Z,81.97
2019-03-01T09:03:00.368Z,90.97
2019-03-01T09:05:29.416Z,89.50
2019-03-01T09:07:57.811Z,90.13
2019-03-01T09:10:29.133Z,88.30
2019-03-01T09:12:56.240Z,104.27
2019-03-01T09:15:24.807Z,90.70
2019-03-01T09:17:53.347Z,93.67
2019-03-01T09:20:32.389Z,89.70
2019-03-01T09:22:59.309Z,90.00
2019-03-01T09:25:27.852Z,96.40
2019-03-01T09:27:57.598Z,93.47
2019-03-01T09:30:26.255Z,94.53
2019-03-01T09:32:54.852Z,94.07
2019-03-01T09:35:42.781Z,93.63
2019-03-01T09:38:11.449Z,93.13
2019-03-01T09:40:39.784Z,118.67
2019-03-01T09:43:08.133Z,92.73
2019-03-01T09:45:36.893Z,89.57
2019-03-01T09:48:05.266Z,83.70
2019-03-01T09:50:34.488Z,82.87
2019-03-01T09:53:08.884Z,81.77
2019-03-01T09:55:37.565Z,84.27
2019-03-01T09:58:08.397Z,89.17
2019-03-01T10:00:43.857Z,79.63
2019-03-01T10:03:12.089Z,81.00
2019-03-01T10:05:40.731Z,91.53
2019-03-01T10:08:09.421Z,84.23
2019-03-01T10:10:37.576Z,81.67
2019-03-01T10:13:05.914Z,82.27
2019-03-01T10:15:34.664Z,87.20
2019-03-01T10:18:02.954Z,83.33
2019-03-01T10:20:31.152Z,86.13
2019-03-01T10:22:59.527Z,85.10
2019-03-01T10:25:27.893Z,82.70
2019-03-01T10:27:56.049Z,83.90
2019-03-01T10:30:25.210Z,106.00
2019-03-01T10:32:53.553Z,84.93
2019-03-01T10:35:21.866Z,90.00
2019-03-01T10:37:50.491Z,90.63
2019-03-01T10:40:23.412Z,88.37
2019-03-01T10:42:51.650Z,88.43
2019-03-01T10:45:21.970Z,80.53
2019-03-01T10:47:50.657Z,90.67
2019-03-01T10:50:19.465Z,89.37
2019-03-01T10:52:47.651Z,90.10
2019-03-01T10:55:17.904Z,88.23
2019-03-01T10:57:46.751Z,91.93
2019-03-01T11:00:22.812Z,84.70
2019-03-01T11:02:51.025Z,86.87
2019-03-01T11:05:19.389Z,118.77
2019-03-01T11:07:48.234Z,88.03
2019-03-01T11:10:18.115Z,88.53
2019-03-01T11:12:46.635Z,90.33
2019-03-01T11:15:15.187Z,86.53
2019-03-01T11:17:44.270Z,87.43
2019-03-01T11:20:17.683Z,89.67
2019-03-01T11:22:46.036Z,91.40
2019-03-01T11:25:15.480Z,91.87
2019-03-01T11:27:48.583Z,88.07
2019-03-01T11:30:23.516Z,84.57
2019-03-01T11:32:51.738Z,88.20
2019-03-01T11:35:20.001Z,92.77
2019-03-01T11:37:48.302Z,88.30
2019-03-01T11:40:17.904Z,83.07
2019-03-01T11:42:48.176Z,82.17
2019-03-01T11:45:17.142Z,75.27
2019-03-01T11:47:46.057Z,70.27
2019-03-01T11:50:23.824Z,78.33
2019-03-01T11:52:52.148Z,71.97
2019-03-01T11:55:20.923Z,85.30
2019-03-01T11:57:49.824Z,76.23
2019-03-01T12:00:23.391Z,81.13
2019-03-01T12:02:51.639Z,88.73
2019-03-01T12:05:20.425Z,86.70
2019-03-01T12:07:55.386Z,82.57
2019-03-01T12:10:30.451Z,78.23
2019-03-01T12:12:58.766Z,83.17
2019-03-01T12:15:27.591Z,80.07
2019-03-01T12:17:56.057Z,86.80
2019-03-01T12:20:26.017Z,86.10
2019-03-01T12:22:54.812Z,84.83
2019-03-01T12:25:23.773Z,85.47
2019-03-01T12:27:52.701Z,87.50
2019-03-01T12:30:22.906Z,91.37
2019-03-01T12:32:52.030Z,89.40
2019-03-01T12:35:20.629Z,102.47
2019-03-01T12:37:48.898Z,91.50
2019-03-01T12:40:27.524Z,95.87
2019-03-01T12:42:56.760Z,97.90
2019-03-01T12:45:25.027Z,171.00
2019-03-01T12:47:53.287Z,99.57
2019-03-01T12:50:21.522Z,101.77
2019-03-01T12:52:49.690Z,100.27
2019-03-01T12:55:19.712Z,107.37
2019-03-01T12:57:48.194Z,112.40
2019-03-01T13:00:24.157Z,114.13
2019-03-01T13:02:52.316Z,111.83
2019-03-01T13:05:20.650Z,117.27
2019-03-01T13:07:51.631Z,117.37
2019-03-01T13:10:24.552Z,118.57
2019-03-01T13:12:54.597Z,117.27
2019-03-01T13:15:22.712Z,117.07
2019-03-01T13:17:50.887Z,118.73
2019-03-01T13:20:19.323Z,130.17
2019-03-01T13:22:47.552Z,127.53
2019-03-01T13:25:15.874Z,132.43
2019-03-01T13:27:44.079Z,132.57
2019-03-01T13:30:14.110Z,123.50
2019-03-01T13:32:42.275Z,127.60
2019-03-01T13:35:12.509Z,119.93
2019-03-01T13:37:41.180Z,119.73
2019-03-01T13:40:15.967Z,121.53
2019-03-01T13:42:47.267Z,127.63
2019-03-01T13:45:19.345Z,126.63
2019-03-01T13:47:47.651Z,132.37
2019-03-01T13:50:17.137Z,130.23
2019-03-01T13:52:45.378Z,270.57
2019-03-01T13:55:18.635Z,134.23
2019-03-01T13:57:46.023Z,189.73
2019-03-01T14:00:18.107Z,285.97
2019-03-01T14:02:47.083Z,250.33
2019-03-01T14:05:17.382Z,243.53
2019-03-01T14:07:45.875Z,182.13
2019-03-01T14:10:17.676Z,166.40
2019-03-01T14:12:49.804Z,163.53
2019-03-01T14:15:18.218Z,161.60
2019-03-01T14:17:48.300Z,170.67
2019-03-01T14:20:20.583Z,188.60
2019-03-01T14:22:50.629Z,185.47
2019-03-01T14:25:19.399Z,156.60
2019-03-01T14:27:48.030Z,163.40
2019-03-01T14:30:18.504Z,188.67
2019-03-01T14:32:47.718Z,179.73
2019-03-01T14:35:16.272Z,203.80
2019-03-01T14:37:44.517Z,274.53
2019-03-01T14:40:18.951Z,328.30
2019-03-01T14:42:47.427Z,322.03
2019-03-01T14:45:17.602Z,248.93
2019-03-01T14:47:49.853Z,174.03
2019-03-01T14:50:19.489Z,165.97
2019-03-01T14:52:48.252Z,193.43
2019-03-01T14:55:23.275Z,206.77
2019-03-01T14:58:00.236Z,255.33
2019-03-01T15:00:34.148Z,266.27
2019-03-01T15:03:06.885Z,199.67
2019-03-01T15:05:38.708Z,215.87
2019-03-01T15:08:07.771Z,151.37
2019-03-01T15:10:38.497Z,201.73
2019-03-01T15:13:08.679Z,209.10
2019-03-01T15:15:36.934Z,210.53
2019-03-01T15:18:05.880Z,209.17
2019-03-01T15:20:34.714Z,199.23
2019-03-01T15:23:03.069Z,159.00
2019-03-01T15:25:32.527Z,182.07
2019-03-01T15:28:02.799Z,168.57
2019-03-01T15:30:31.556Z,176.13
2019-03-01T15:33:02.093Z,178.77
2019-03-01T15:35:30.755Z,188.37
2019-03-01T15:38:00.013Z,592.13
2019-03-01T15:40:31.459Z,491.03
2019-03-01T15:42:59.337Z,253.23
2019-03-01T15:45:27.887Z,347.20
2019-03-01T15:47:58.810Z,283.40
2019-03-01T15:50:28.523Z,284.87
2019-03-01T15:52:57.313Z,255.33
2019-03-01T15:55:26.659Z,218.90
2019-03-01T15:57:56.459Z,271.77
2019-03-01T16:00:29.456Z,273.97
2019-03-01T16:02:57.241Z,264.07
2019-03-01T16:05:25.438Z,267.63
2019-03-01T16:07:55.595Z,259.53
2019-03-01T16:10:24.032Z,437.17
2019-03-01T16:12:52.845Z,314.47
2019-03-01T16:15:22.892Z,241.27
2019-03-01T16:17:57.632Z,220.67
2019-03-01T16:20:28.423Z,216.70
2019-03-01T16:22:57.263Z,270.97
2019-03-01T16:25:27.774Z,254.00
2019-03-01T16:27:59.284Z,241.63
2019-03-01T16:30:33.066Z,238.20
2019-03-01T16:33:04.147Z,244.67
2019-03-01T16:35:33.811Z,248.23
2019-03-01T16:38:06.292Z,264.67
2019-03-01T16:40:36.117Z,262.83
2019-03-01T16:43:04.968Z,268.93
2019-03-01T16:45:36.152Z,240.50
2019-03-01T16:48:05.302Z,246.67
2019-03-01T16:50:35.298Z,273.10
2019-03-01T16:53:05.543Z,314.13
2019-03-01T16:55:38.993Z,283.23
2019-03-01T16:58:07.435Z,270.97
2019-03-01T17:00:36.468Z,304.37
2019-03-01T17:03:06.410Z,274.20
2019-03-01T17:05:35.687Z,291.23
2019-03-01T17:08:08.369Z,202.47
2019-03-01T17:10:37.320Z,215.20
2019-03-01T17:13:07.837Z,212.57
2019-03-01T17:15:36.486Z,242.00
2019-03-01T17:18:11.103Z,218.87
2019-03-01T17:20:38.342Z,463.50
2019-03-01T17:23:07.365Z,437.53
2019-03-01T17:25:36.418Z,510.77
2019-03-01T17:28:05.161Z,532.10
2019-03-01T17:30:34.322Z,417.77
2019-03-01T17:33:03.005Z,385.97
2019-03-01T17:35:31.820Z,341.63
2019-03-01T17:38:00.581Z,194.70
2019-03-01T17:40:32.472Z,209.97
2019-03-01T17:42:59.800Z,144.63
2019-03-01T17:45:29.393Z,132.07
2019-03-01T17:47:58.197Z,90.87
2019-03-01T17:50:27.115Z,112.63
2019-03-01T17:52:59.870Z,106.90
2019-03-01T17:55:29.449Z,111.73
2019-03-01T17:57:58.245Z,324.30
2019-03-01T18:00:38.439Z,208.90
2019-03-01T18:03:08.792Z,216.80
2019-03-01T18:05:40.224Z,211.73
2019-03-01T18:08:07.714Z,210.27
2019-03-01T18:10:36.591Z,262.97
2019-03-01T18:13:05.304Z,226.90
2019-03-01T18:15:33.783Z,246.40
2019-03-01T18:18:02.677Z,185.00
2019-03-01T18:20:34.019Z,188.17
2019-03-01T18:23:02.345Z,152.30
2019-03-01T18:25:31.891Z,141.63
2019-03-01T18:28:00.333Z,137.47
2019-03-01T18:30:32.445Z,126.07
2019-03-01T18:33:00.645Z,123.03
2019-03-01T18:35:28.810Z,169.63
2019-03-01T18:37:57.245Z,166.20
2019-03-01T18:40:25.720Z,169.70
2019-03-01T18:42:54.053Z,168.43
2019-03-01T18:45:23.210Z,159.93
2019-03-01T18:47:51.371Z,166.03
2019-03-01T18:50:21.215Z,152.47
2019-03-01T18:52:53.183Z,163.30
2019-03-01T18:55:21.007Z,219.17
2019-03-01T18:57:49.759Z,189.67
2019-03-01T19:00:23.269Z,188.97
2019-03-01T19:02:52.721Z,216.77
2019-03-01T19:05:21.136Z,182.03
2019-03-01T19:07:49.663Z,186.07
2019-03-01T19:10:24.005Z,200.10
2019-03-01T19:12:51.823Z,184.23
2019-03-01T19:15:20.120Z,138.63
2019-03-01T19:17:48.493Z,200.07
2019-03-01T19:20:18.117Z,179.40
2019-03-01T19:22:46.547Z,281.53
2019-03-01T19:25:15.280Z,224.77
2019-03-01T19:27:43.667Z,173.37
2019-03-01T19:30:14.358Z,315.13
2019-03-01T19:32:43.086Z,162.37
2019-03-01T19:35:11.704Z,269.60
2019-03-01T19:37:40.018Z,580.57
2019-03-01T19:40:12.825Z,338.03
2019-03-01T19:42:41.158Z,265.90
2019-03-01T19:45:10.736Z,219.57
2019-03-01T19:47:39.136Z,242.57
2019-03-01T19:50:08.923Z,283.90
2019-03-01T19:52:37.427Z,292.40
2019-03-01T19:55:08.034Z,268.63
2019-03-01T19:57:37.922Z,372.13
2019-03-01T20:00:16.325Z,296.17
2019-03-01T20:02:44.858Z,173.10
2019-03-01T20:05:15.437Z,262.33
2019-03-01T20:07:44.026Z,208.17
2019-03-01T20:10:15.143Z,192.50
2019-03-01T20:12:43.535Z,310.07
2019-03-01T20:15:20.522Z,622.13
2019-03-01T20:17:48.929Z,386.07
2019-03-01T20:20:23.830Z,210.93
2019-03-01T20:22:54.354Z,208.60
2019-03-01T20:25:22.731Z,338.27
2019-03-01T20:27:51.012Z,235.10
2019-03-01T20:30:20.825Z,221.90
2019-03-01T20:32:51.202Z,198.30
2019-03-01T20:35:19.303Z,182.53
2019-03-01T20:37:47.647Z,163.83
2019-03-01T20:40:16.076Z,134.13
2019-03-01T20:42:44.736Z,151.63
2019-03-01T20:45:25.839Z,165.13
2019-03-01T20:47:53.733Z,110.87
2019-03-01T20:50:22.968Z,94.93
2019-03-01T20:52:51.162Z,114.17
2019-03-01T20:55:19.957Z,103.43
2019-03-01T20:57:48.361Z,151.80
2019-03-01T21:00:18.755Z,170.77
2019-03-01T21:02:50.341Z,164.40
2019-03-01T21:05:17.668Z,134.23
2019-03-01T21:07:48.213Z,129.60
2019-03-01T21:10:20.164Z,159.43
2019-03-01T21:12:48.666Z,123.37
2019-03-01T21:15:17.704Z,163.80
2019-03-01T21:17:46.400Z,93.90
2019-03-01T21:20:15.954Z,139.80
2019-03-01T21:22:45.425Z,137.87
2019-03-01T21:25:14.658Z,89.67
2019-03-01T21:27:42.887Z,95.13
2019-03-01T21:30:12.459Z,75.50
2019-03-01T21:32:40.949Z,85.10
2019-03-01T21:35:10.506Z,162.23
2019-03-01T21:37:39.411Z,92.87
2019-03-01T21:40:09.505Z,97.43
2019-03-01T21:42:37.717Z,141.07
2019-03-01T21:45:07.889Z,141.57
2019-03-01T21:47:36.433Z,149.80
2019-03-01T21:50:07.502Z,163.17
2019-03-01T21:52:41.933Z,179.60
2019-03-01T21:55:41.136Z,113.27
2019-03-01T21:58:11.326Z,116.80
2019-03-01T22:00:40.209Z,87.90
2019-03-01T22:03:28.123Z,84.20
2019-03-01T22:05:57.588Z,90.57
2019-03-01T22:08:25.807Z,94.83
2019-03-01T22:10:56.356Z,101.33
2019-03-01T22:13:24.566Z,113.17
2019-03-01T22:15:52.969Z,82.10
2019-03-01T22:18:23.636Z,74.03
2019-03-01T22:20:51.695Z,95.63
2019-03-01T22:23:20.091Z,81.10
2019-03-01T22:25:48.635Z,79.27
2019-03-01T22:28:17.057Z,90.23
2019-03-01T22:30:45.230Z,91.40
2019-03-01T22:33:13.603Z,96.47
2019-03-01T22:35:43.576Z,75.73
2019-03-01T22:38:11.917Z,76.83
2019-03-01T22:40:40.056Z,79.83
2019-03-01T22:43:08.693Z,97.70
2019-03-01T22:45:36.925Z,91.13
2019-03-01T22:48:08.514Z,107.60
2019-03-01T22:50:35.659Z,105.00
2019-03-01T22:53:06.597Z,104.90
2019-03-01T22:55:36.727Z,98.93
2019-03-01T22:58:05.597Z,84.80
2019-03-01T23:00:54.537Z,75.43
2019-03-01T23:03:25.037Z,55.30
2019-03-01T23:08:49.335Z,56.23
2019-03-01T23:11:17.655Z,59.87
2019-03-01T23:13:45.824Z,61.57
2019-03-01T23:16:15.861Z,65.73
2019-03-01T23:18:43.884Z,67.10
2019-03-01T23:21:12.440Z,72.63
2019-03-01T23:23:40.845Z,138.00
2019-03-01T23:26:09.000Z,123.10
2019-03-01T23:28:40.528Z,86.10
2019-03-01T23:31:07.405Z,69.80
2019-03-01T23:33:35.833Z,72.33
2019-03-01T23:36:04.068Z,71.63
2019-03-01T23:38:32.557Z,73.63
2019-03-01T23:41:00.988Z,90.30
2019-03-01T23:43:30.828Z,71.77
2019-03-01T23:45:59.271Z,76.47
2019-03-01T23:48:27.425Z,79.57
2019-03-01T23:50:55.579Z,73.97
2019-03-01T23:53:23.763Z,76.53
2019-03-01T23:55:54.688Z,78.27
2019-03-01T23:58:21.810Z,72.20
